Time;durP1;ratioP1;P1;durP2;ratioP2;P2;SDS_P1;SDS_P2;PMS_P1;PMS_P2;Temp;Humidity;BMP_temperature;BMP_pressure;BME280_temperature;BME280_humidity;BME280_pressure;Samples;Min_cycle;Max_cycle;Signal;HPM_P1;HPM_P2
2021/04/06 00:02:25;;;;;;;4.60;3.13;;;-0.20;59.50;;;;;;5071757;28;37122;-87
2021/04/06 00:04:56;;;;;;;5.90;3.57;;;-0.20;59.40;;;;;;5074909;28;39322;-86
2021/04/06 00:07:27;;;;;;;4.53;3.03;;;-0.10;59.70;;;;;;5049404;28;37913;-87
2021/04/06 00:09:57;;;;;;;5.27;3.10;;;-0.10;59.20;;;;;;5052764;28;37114;-87
2021/04/06 00:12:27;;;;;;;5.10;2.83;;;-0.20;59.10;;;;;;5077052;28;38626;-87
2021/04/06 00:14:56;;;;;;;5.27;2.90;;;-0.30;58.70;;;;;;5082377;28;39282;-86
2021/04/06 00:17:24;;;;;;;5.30;3.00;;;-0.20;59.10;;;;;;5084488;28;39509;-86
2021/04/06 00:19:56;;;;;;;4.50;2.60;;;-0.30;58.80;;;;;;5078710;28;38025;-87
2021/04/06 00:22:27;;;;;;;3.00;2.47;;;-0.40;58.90;;;;;;5048469;28;36863;-87
2021/04/06 00:24:56;;;;;;;9.27;2.67;;;-0.40;58.50;;;;;;5054774;28;39274;-87
2021/04/06 00:27:27;;;;;;;4.83;2.77;;;-0.50;58.40;;;;;;5060052;28;39045;-88
2021/04/06 00:29:57;;;;;;;3.83;2.70;;;-0.50;58.60;;;;;;5078923;28;39035;-87
2021/04/06 00:32:26;;;;;;;8.90;2.97;;;-0.50;58.50;;;;;;5085449;28;38134;-87
2021/04/06 00:34:58;;;;;;;4.80;2.90;;;-0.50;58.60;;;;;;5075727;28;38336;-87
2021/04/06 00:37:28;;;;;;;6.40;3.00;;;-0.60;58.70;;;;;;5056587;28;37971;-86
2021/04/06 00:40:05;;;;;;;3.57;2.57;;;-0.60;58.90;;;;;;5048344;28;36969;-87
2021/04/06 00:42:33;;;;;;;5.07;2.63;;;-0.60;59.00;;;;;;5063707;28;37205;-87
2021/04/06 00:45:07;;;;;;;6.53;2.67;;;-0.70;58.70;;;;;;5059711;28;38505;-87
2021/04/06 00:47:38;;;;;;;4.50;2.73;;;-0.70;58.80;;;;;;5060507;28;37710;-87
2021/04/06 00:50:11;;;;;;;5.70;2.80;;;-0.70;59.00;;;;;;5058134;28;36603;-87
2021/04/06 00:52:42;;;;;;;6.97;3.80;;;-0.80;59.10;;;;;;5060511;28;37153;-88
2021/04/06 00:55:15;;;;;;;7.90;4.00;;;-0.80;59.20;;;;;;5059387;28;39539;-88
2021/04/06 00:57:44;;;;;;;6.10;3.27;;;-0.80;59.00;;;;;;5061465;28;38904;-87
2021/04/06 01:00:16;;;;;;;5.77;2.90;;;-0.80;59.10;;;;;;5079496;28;38875;-87
2021/04/06 01:03:01;;;;;;;5.20;2.90;;;-0.80;59.00;;;;;;5056022;28;37094;-87
2021/04/06 01:05:31;;;;;;;4.40;2.80;;;-0.80;58.70;;;;;;5058704;28;38651;-87
2021/04/06 01:07:59;;;;;;;4.10;2.23;;;-0.90;58.70;;;;;;5074269;28;37808;-87
2021/04/06 01:10:27;;;;;;;4.80;2.10;;;-0.80;59.00;;;;;;5083378;28;38204;-85
2021/04/06 01:12:56;;;;;;;4.67;2.17;;;-0.80;58.70;;;;;;5077459;28;38053;-86
2021/04/06 01:15:23;;;;;;;4.93;1.90;;;-0.80;58.80;;;;;;5081057;28;39856;-87
2021/04/06 01:17:51;;;;;;;4.33;2.40;;;-0.80;58.60;;;;;;5058104;28;37679;-87
2021/04/06 01:20:19;;;;;;;4.50;3.10;;;-0.70;59.70;;;;;;5083977;28;38447;-87
2021/04/06 01:22:53;;;;;;;5.23;2.37;;;-0.60;59.50;;;;;;5075705;28;37295;-86
2021/04/06 01:25:22;;;;;;;4.53;2.20;;;-0.50;59.90;;;;;;5059004;28;39094;-86
2021/04/06 01:27:50;;;;;;;6.80;3.07;;;-0.40;60.00;;;;;;5068105;28;38063;-86
2021/04/06 01:30:22;;;;;;;4.27;2.73;;;-0.30;59.80;;;;;;5085021;28;37210;-86
2021/04/06 01:32:51;;;;;;;3.27;2.97;;;-0.20;60.00;;;;;;5061275;28;35919;-87
2021/04/06 01:35:18;;;;;;;2.60;2.33;;;-0.10;60.00;;;;;;5085144;28;39598;-87
2021/04/06 01:37:46;;;;;;;6.93;2.67;;;0.00;59.50;;;;;;5068695;28;39912;-87
2021/04/06 01:40:14;;;;;;;11.07;3.10;;;0.10;59.20;;;;;;5071934;28;38147;-87
2021/04/06 01:42:42;;;;;;;3.07;2.27;;;0.10;58.60;;;;;;5074194;28;37150;-87
2021/04/06 01:45:17;;;;;;;4.10;2.43;;;0.10;58.10;;;;;;5054295;28;38439;-87
2021/04/06 01:47:44;;;;;;;6.20;2.23;;;0.00;57.00;;;;;;5055511;28;38983;-87
2021/04/06 01:50:15;;;;;;;3.03;2.30;;;-0.20;56.50;;;;;;5070293;28;38778;-87
2021/04/06 01:52:47;;;;;;;3.47;2.10;;;-0.30;56.50;;;;;;5069548;28;37290;-87
2021/04/06 01:55:16;;;;;;;4.00;2.10;;;-0.50;56.20;;;;;;5054476;28;38291;-86
2021/04/06 01:57:46;;;;;;;4.57;2.00;;;-0.60;56.40;;;;;;5055557;28;38178;-87
2021/04/06 02:00:23;;;;;;;3.87;2.30;;;-0.70;56.40;;;;;;5076432;28;38073;-87
2021/04/06 02:02:51;;;;;;;4.70;3.13;;;-0.80;56.50;;;;;;5076962;28;37289;-88
2021/04/06 02:05:18;;;;;;;4.70;2.90;;;-0.80;56.90;;;;;;5072228;28;39894;-87
2021/04/06 02:07:47;;;;;;;3.30;2.40;;;-0.80;56.90;;;;;;5077828;28;39035;-88
2021/04/06 02:10:18;;;;;;;5.13;3.07;;;-0.90;56.90;;;;;;5060585;28;37746;-86
2021/04/06 02:12:46;;;;;;;4.30;2.80;;;-0.90;57.20;;;;;;5061661;28;37080;-87
2021/04/06 02:15:14;;;;;;;5.10;2.67;;;-1.00;57.20;;;;;;5061080;28;38826;-86
2021/04/06 02:17:49;;;;;;;3.23;2.83;;;-0.90;57.20;;;;;;5058250;28;38168;-86
2021/04/06 02:20:20;;;;;;;6.87;3.00;;;-0.90;57.20;;;;;;5054926;28;38068;-86
2021/04/06 02:22:55;;;;;;;5.60;2.53;;;-0.90;57.20;;;;;;5051662;28;34856;-87
2021/04/06 02:25:22;;;;;;;6.57;3.30;;;-0.90;57.10;;;;;;5049124;28;39724;-85
2021/04/06 02:27:50;;;;;;;7.93;2.70;;;-0.90;57.30;;;;;;5062303;28;37579;-86
2021/04/06 02:30:18;;;;;;;3.70;2.40;;;-1.00;56.60;;;;;;5069358;28;37004;-87
2021/04/06 02:32:45;;;;;;;3.57;2.80;;;-1.10;56.80;;;;;;5069717;28;37978;-86
2021/04/06 02:35:14;;;;;;;5.27;2.97;;;-1.10;56.90;;;;;;5079604;28;39751;-85
2021/04/06 02:37:44;;;;;;;8.10;2.67;;;-1.00;56.80;;;;;;5054464;28;37481;-87
2021/04/06 02:40:13;;;;;;;3.87;2.97;;;-1.00;56.80;;;;;;5054577;28;37242;-86
2021/04/06 02:42:41;;;;;;;4.17;3.30;;;-1.00;56.50;;;;;;5056168;28;35930;-85
2021/04/06 02:45:13;;;;;;;5.80;3.00;;;-1.00;56.40;;;;;;5070063;28;39771;-86
2021/04/06 02:47:45;;;;;;;4.23;2.80;;;-1.10;57.00;;;;;;5072231;28;39296;-85
2021/04/06 02:50:14;;;;;;;3.20;2.80;;;-1.10;56.20;;;;;;5060488;28;38097;-86
2021/04/06 02:52:41;;;;;;;3.50;2.63;;;-1.20;56.40;;;;;;5052763;28;37363;-86
2021/04/06 02:55:10;;;;;;;7.27;2.97;;;-1.20;56.30;;;;;;5066752;28;39621;-86
2021/04/06 02:57:41;;;;;;;7.40;3.27;;;-1.20;56.50;;;;;;5072949;28;38993;-86
2021/04/06 03:00:11;;;;;;;5.87;3.47;;;-1.20;56.30;;;;;;5072338;28;37673;-86
2021/04/06 03:02:41;;;;;;;6.50;2.80;;;-1.20;56.10;;;;;;5078743;28;37100;-87
2021/04/06 03:05:09;;;;;;;3.50;2.80;;;-1.20;56.10;;;;;;5073403;28;39597;-88
2021/04/06 03:07:46;;;;;;;3.40;2.63;;;-1.30;56.10;;;;;;5052777;28;38688;-86
2021/04/06 03:10:19;;;;;;;5.27;2.50;;;-1.20;56.40;;;;;;5071882;28;38397;-86
2021/04/06 03:12:48;;;;;;;4.77;2.80;;;-1.20;56.00;;;;;;5070078;28;38081;-85
2021/04/06 03:15:21;;;;;;;2.67;2.47;;;-1.30;55.90;;;;;;5078448;28;39711;-84
2021/04/06 03:17:49;;;;;;;4.03;2.80;;;-1.20;56.00;;;;;;5074739;28;39948;-86
2021/04/06 03:20:18;;;;;;;7.40;3.70;;;-1.20;56.00;;;;;;5081395;28;38777;-85
2021/04/06 03:22:46;;;;;;;4.70;3.00;;;-1.20;55.80;;;;;;5064597;28;35069;-86
2021/04/06 03:25:14;;;;;;;4.10;2.97;;;-1.20;56.40;;;;;;5049112;28;38552;-87
2021/04/06 03:27:45;;;;;;;4.23;3.00;;;-1.20;55.40;;;;;;5076297;28;39061;-86
2021/04/06 03:30:13;;;;;;;7.40;3.03;;;-1.20;55.50;;;;;;5054041;28;36694;-86
2021/04/06 03:32:41;;;;;;;7.77;3.00;;;-1.30;55.40;;;;;;5055778;28;37237;-86
2021/04/06 03:35:09;;;;;;;11.60;5.10;;;-1.30;55.70;;;;;;5064042;28;38357;-86
2021/04/06 03:37:37;;;;;;;3.90;3.17;;;-1.20;56.10;;;;;;5054766;28;38156;-85
2021/04/06 03:40:05;;;;;;;4.07;2.63;;;-1.20;56.30;;;;;;5051149;28;37651;-86
2021/04/06 03:42:32;;;;;;;3.87;3.30;;;-1.10;56.00;;;;;;5049286;28;36131;-87
2021/04/06 03:45:07;;;;;;;6.33;3.00;;;-1.00;56.00;;;;;;5051795;28;39494;-85
2021/04/06 03:47:58;;;;;;;4.13;2.70;;;-0.90;55.50;;;;;;5070482;28;39391;-84
2021/04/06 03:50:33;;;;;;;5.73;3.37;;;-0.90;54.70;;;;;;5049164;28;37084;-85
2021/04/06 03:53:02;;;;;;;5.87;3.13;;;-0.80;55.20;;;;;;5071198;28;37081;-85
2021/04/06 03:55:29;;;;;;;5.70;3.47;;;-0.70;54.60;;;;;;5080120;28;40631;-86
2021/04/06 03:58:10;;;;;;;4.03;3.03;;;-0.70;54.60;;;;;;5055536;28;36894;-86
2021/04/06 04:00:37;;;;;;;5.43;3.07;;;-0.50;53.90;;;;;;5067947;28;37813;-85
2021/04/06 04:03:05;;;;;;;4.17;2.63;;;-0.50;53.80;;;;;;5073933;28;37680;-86
2021/04/06 04:05:32;;;;;;;3.80;2.93;;;-0.40;53.20;;;;;;5071351;28;40614;-87
2021/04/06 04:07:59;;;;;;;5.53;3.37;;;-0.40;53.00;;;;;;5055653;28;38291;-87
2021/04/06 04:10:26;;;;;;;5.00;2.90;;;-0.40;52.80;;;;;;5055977;28;38004;-85
2021/04/06 04:12:54;;;;;;;6.90;2.60;;;-0.30;52.80;;;;;;5071994;28;37520;-87
2021/04/06 04:15:21;;;;;;;5.30;3.63;;;-0.30;52.80;;;;;;5052486;28;38613;-86
2021/04/06 04:17:49;;;;;;;3.50;2.80;;;-0.30;52.70;;;;;;5072532;28;39496;-85
2021/04/06 04:20:19;;;;;;;4.50;2.97;;;-0.20;52.50;;;;;;5060194;28;37149;-87
2021/04/06 04:22:46;;;;;;;4.43;2.63;;;-0.20;52.40;;;;;;5070588;28;37352;-86
2021/04/06 04:25:15;;;;;;;4.33;2.67;;;-0.10;52.50;;;;;;5049424;28;40399;-86
2021/04/06 04:27:43;;;;;;;4.17;2.60;;;-0.20;52.20;;;;;;5072808;28;39825;-85
2021/04/06 04:30:12;;;;;;;3.60;2.70;;;-0.10;52.40;;;;;;5054733;28;37055;-87
2021/04/06 04:32:40;;;;;;;5.67;3.20;;;-0.20;52.20;;;;;;5071684;28;37247;-86
2021/04/06 04:35:09;;;;;;;6.03;3.20;;;-0.10;51.60;;;;;;5054667;28;38814;-85
2021/04/06 04:37:36;;;;;;;4.33;2.50;;;-0.10;52.20;;;;;;5070685;28;37676;-86
2021/04/06 04:40:04;;;;;;;3.37;3.07;;;-0.10;52.00;;;;;;5051087;28;37254;-86
2021/04/06 04:42:31;;;;;;;5.67;2.93;;;0.00;52.10;;;;;;5070118;28;37095;-85
2021/04/06 04:44:58;;;;;;;3.50;2.60;;;0.00;51.70;;;;;;5072483;28;39554;-86
2021/04/06 04:47:25;;;;;;;7.93;2.80;;;0.00;51.30;;;;;;5073352;28;38746;-84
2021/04/06 04:49:52;;;;;;;4.10;2.83;;;0.00;51.60;;;;;;5052312;28;37717;-85
2021/04/06 04:52:19;;;;;;;6.07;2.90;;;0.00;51.50;;;;;;5073031;28;37029;-85
2021/04/06 04:54:47;;;;;;;6.93;2.70;;;0.10;51.10;;;;;;5051878;28;39800;-85
2021/04/06 04:57:14;;;;;;;3.50;2.87;;;0.10;51.40;;;;;;5071952;28;40119;-86
2021/04/06 04:59:41;;;;;;;6.60;2.77;;;0.20;51.00;;;;;;5064084;28;37735;-84
2021/04/06 05:02:08;;;;;;;4.13;2.73;;;0.20;50.30;;;;;;5056962;28;36068;-86
2021/04/06 05:04:35;;;;;;;5.77;2.93;;;0.30;50.40;;;;;;5071526;28;40514;-85
2021/04/06 05:07:02;;;;;;;7.60;3.00;;;0.20;50.40;;;;;;5055838;28;38609;-85
2021/04/06 05:09:29;;;;;;;4.73;2.77;;;0.20;50.30;;;;;;5071327;28;37806;-84
2021/04/06 05:11:57;;;;;;;4.90;2.57;;;0.20;50.70;;;;;;5050377;28;36998;-86
2021/04/06 05:14:24;;;;;;;8.57;3.07;;;0.30;50.60;;;;;;5074154;28;40587;-85
2021/04/06 05:16:51;;;;;;;3.40;2.30;;;0.30;50.40;;;;;;5057568;28;38211;-86
2021/04/06 05:19:18;;;;;;;3.37;2.13;;;0.40;50.60;;;;;;5057069;28;38199;-85
2021/04/06 05:21:45;;;;;;;5.20;2.70;;;0.40;50.50;;;;;;5076620;28;37912;-85
2021/04/06 05:24:13;;;;;;;6.90;2.93;;;0.50;50.30;;;;;;5056131;28;38363;-86
2021/04/06 05:26:40;;;;;;;3.60;2.80;;;0.60;50.20;;;;;;5057747;28;37651;-85
2021/04/06 05:29:08;;;;;;;3.57;2.67;;;0.60;50.00;;;;;;5077427;28;39238;-86
2021/04/06 05:31:35;;;;;;;5.90;2.57;;;0.70;50.00;;;;;;5070065;28;37010;-86
2021/04/06 05:34:02;;;;;;;4.93;2.40;;;0.70;50.00;;;;;;5061148;28;38311;-86
2021/04/06 05:36:29;;;;;;;4.40;2.70;;;0.70;50.10;;;;;;5074785;28;39119;-85
2021/04/06 05:38:56;;;;;;;3.67;2.50;;;0.70;49.60;;;;;;5075756;28;38930;-87
2021/04/06 05:41:27;;;;;;;8.43;3.20;;;0.70;49.70;;;;;;5095642;28;38040;-87
2021/04/06 05:44:01;;;;;;;3.70;2.57;;;0.70;49.80;;;;;;5098886;28;40890;-87
2021/04/06 05:46:32;;;;;;;4.97;3.10;;;0.80;49.20;;;;;;5099110;28;40192;-88
2021/04/06 05:49:02;;;;;;;5.30;2.30;;;0.80;49.50;;;;;;5089695;28;37674;-88
2021/04/06 05:51:30;;;;;;;3.53;2.43;;;0.80;49.30;;;;;;5077859;28;36934;-76
2021/04/06 05:54:00;;;;;;;6.10;2.30;;;0.90;50.00;;;;;;5076558;28;40744;-88
2021/04/06 05:56:29;;;;;;;5.40;2.77;;;1.30;49.30;;;;;;5052198;28;38044;-86
2021/04/06 05:58:58;;;;;;;5.53;2.87;;;1.50;48.50;;;;;;5068822;28;37535;-91
2021/04/06 06:01:33;;;;;;;2.73;2.47;;;1.60;47.70;;;;;;5076500;28;36260;-88
2021/04/06 06:04:01;;;;;;;6.53;2.97;;;1.60;47.30;;;;;;5069994;28;39888;-91
2021/04/06 06:06:39;;;;;;;3.50;2.60;;;1.50;47.50;;;;;;5082172;28;38001;-91
2021/04/06 06:09:09;;;;;;;8.20;3.13;;;1.50;47.60;;;;;;5089438;28;37929;-90
2021/04/06 06:11:56;;;;;;;8.97;2.50;;;1.60;47.30;;;;;;5070032;28;36181;-94
2021/04/06 06:14:28;;;;;;;8.53;2.80;;;1.30;46.90;;;;;;5061494;28;37585;-91
2021/04/06 06:16:57;;;;;;;3.63;2.17;;;1.40;47.10;;;;;;5089818;28;39206;-90
2021/04/06 06:19:33;;;;;;;4.37;2.27;;;1.40;47.10;;;;;;5078575;28;37923;-91
2021/04/06 06:22:12;;;;;;;2.47;2.20;;;1.40;46.90;;;;;;5060581;28;36953;-92
2021/04/06 06:24:43;;;;;;;6.77;2.33;;;1.40;46.70;;;;;;5091273;28;40281;-93
2021/04/06 06:27:25;;;;;;;5.90;2.00;;;1.50;47.00;;;;;;5066084;28;37869;-93
2021/04/06 06:29:53;;;;;;;5.80;2.80;;;1.70;46.60;;;;;;5071457;28;37026;-91
2021/04/06 06:32:23;;;;;;;5.43;2.43;;;1.70;46.50;;;;;;5097722;28;37292;-93
2021/04/06 06:34:51;;;;;;;3.23;2.10;;;1.80;46.00;;;;;;5085325;28;39572;-88
2021/04/06 06:37:24;;;;;;;5.30;2.30;;;1.90;45.90;;;;;;5086734;28;39000;-91
2021/04/06 06:40:04;;;;;;;5.47;3.37;;;1.90;45.70;;;;;;5071211;28;38283;-90
2021/04/06 06:42:33;;;;;;;3.70;2.20;;;2.00;45.80;;;;;;5082118;28;37062;-89
2021/04/06 06:45:02;;;;;;;7.50;2.40;;;2.10;46.10;;;;;;5099776;28;40707;-91
2021/04/06 06:50:16;;;;;;;6.30;2.17;;;2.30;45.90;;;;;;5063965;28;38654;-89
2021/04/06 06:52:44;;;;;;;4.53;2.60;;;2.30;45.20;;;;;;5073072;28;36600;-90
2021/04/06 06:55:19;;;;;;;5.57;2.00;;;2.40;45.40;;;;;;5043083;28;38527;-90
2021/04/06 06:57:47;;;;;;;3.53;2.40;;;2.40;45.40;;;;;;5053811;28;37861;-90
2021/04/06 07:00:17;;;;;;;7.10;2.73;;;2.40;45.20;;;;;;5057001;28;37100;-91
2021/04/06 07:02:45;;;;;;;3.67;2.60;;;2.40;45.20;;;;;;5077600;28;37165;-90
2021/04/06 07:05:19;;;;;;;4.10;2.43;;;2.50;44.90;;;;;;5067147;28;38684;-90
2021/04/06 07:07:56;;;;;;;6.20;2.33;;;2.50;44.80;;;;;;5067005;28;38872;-88
2021/04/06 07:10:25;;;;;;;8.27;2.57;;;2.60;44.30;;;;;;5059812;28;37570;-89
2021/04/06 07:12:57;;;;;;;4.40;2.50;;;2.60;44.60;;;;;;5051845;28;37036;-91
2021/04/06 07:15:26;;;;;;;4.63;1.97;;;2.60;44.40;;;;;;5050410;28;38297;-91
2021/04/06 07:18:00;;;;;;;3.17;1.90;;;2.70;44.30;;;;;;5058081;28;37987;-91
2021/04/06 07:20:29;;;;;;;8.10;3.03;;;2.70;44.20;;;;;;5076800;28;38120;-88
2021/04/06 07:23:00;;;;;;;7.30;2.70;;;2.60;44.50;;;;;;5070355;28;36552;-88
2021/04/06 07:25:28;;;;;;;5.23;2.20;;;2.70;45.00;;;;;;5080850;28;40559;-90
2021/04/06 07:27:56;;;;;;;5.50;2.53;;;2.80;44.50;;;;;;5054166;28;39617;-91
2021/04/06 07:30:25;;;;;;;4.27;2.20;;;2.90;44.90;;;;;;5083325;28;38256;-88
2021/04/06 07:32:57;;;;;;;4.57;2.40;;;3.20;44.30;;;;;;5062504;28;35987;-91
2021/04/06 07:35:25;;;;;;;5.13;2.17;;;3.40;43.10;;;;;;5061194;28;39506;-91
2021/04/06 07:37:53;;;;;;;4.77;2.70;;;3.50;43.20;;;;;;5068821;28;40537;-90
2021/04/06 07:40:24;;;;;;;5.23;1.93;;;3.80;43.30;;;;;;5080321;28;37791;-88
2021/04/06 07:42:53;;;;;;;5.63;2.03;;;4.00;42.20;;;;;;5082024;28;37172;-90
2021/04/06 07:45:40;;;;;;;2.80;2.40;;;4.20;42.30;;;;;;5075688;28;40168;-92
2021/04/06 07:48:11;;;;;;;6.73;1.73;;;4.40;41.40;;;;;;5056559;28;38459;-91
2021/04/06 07:50:42;;;;;;;3.83;1.80;;;4.40;40.90;;;;;;5057656;28;39651;-92
2021/04/06 07:53:23;;;;;;;4.33;1.93;;;4.60;40.80;;;;;;5077236;28;37072;-90
2021/04/06 07:55:50;;;;;;;6.27;1.90;;;4.70;40.30;;;;;;5054269;28;39073;-90
2021/04/06 07:58:45;;;;;;;7.50;1.97;;;5.00;39.80;;;;;;5043304;28;38466;-90
2021/04/06 08:01:16;;;;;;;4.40;2.00;;;5.30;39.00;;;;;;5043619;28;38407;-92
2021/04/06 08:04:07;;;;;;;5.10;1.83;;;5.60;39.50;;;;;;5060159;28;36293;-90
2021/04/06 08:06:45;;;;;;;3.13;1.73;;;5.80;38.40;;;;;;5071355;28;40437;-91
2021/04/06 08:09:45;;;;;;;4.73;2.00;;;6.00;37.90;;;;;;5068365;28;39219;-92
2021/04/06 08:12:15;;;;;;;3.03;1.73;;;6.20;37.60;;;;;;5042567;28;37920;-90
2021/04/06 08:14:45;;;;;;;6.43;2.40;;;6.80;37.10;;;;;;5066695;28;37975;-91
2021/04/06 08:17:47;;;;;;;15.83;2.60;;;7.40;36.30;;;;;;5071283;28;39309;-92
2021/04/06 08:20:41;;;;;;;7.97;2.00;;;8.30;35.70;;;;;;5078330;28;39935;-89
2021/04/06 08:23:11;;;;;;;3.33;1.60;;;10.50;31.20;;;;;;5061674;28;38704;-92
2021/04/06 08:25:53;;;;;;;3.10;1.80;;;11.00;30.10;;;;;;5083668;28;37523;-90
2021/04/06 08:28:38;;;;;;;3.83;2.17;;;11.00;28.90;;;;;;5047570;28;38298;-91
2021/04/06 08:31:29;;;;;;;4.83;1.60;;;11.00;28.80;;;;;;5063272;28;37740;-92
2021/04/06 08:34:29;;;;;;;5.70;2.10;;;11.40;28.40;;;;;;5076753;28;36753;-92
2021/04/06 08:37:11;;;;;;;3.13;1.60;;;12.40;28.00;;;;;;5052518;28;36562;-92
2021/04/06 08:39:40;;;;;;;4.23;1.47;;;13.70;25.70;;;;;;5058379;28;38883;-94
2021/04/06 08:42:10;;;;;;;6.47;2.43;;;13.00;25.60;;;;;;5069574;28;39283;-92
2021/04/06 08:44:40;;;;;;;5.77;1.90;;;11.70;26.50;;;;;;5069863;28;37637;-91
2021/04/06 08:47:07;;;;;;;5.00;1.87;;;10.70;27.60;;;;;;5094073;28;37262;-91
2021/04/06 08:49:42;;;;;;;6.30;2.60;;;9.90;28.80;;;;;;5064508;28;39220;-90
2021/04/06 08:52:16;;;;;;;5.23;1.73;;;8.80;29.90;;;;;;5061948;28;38881;-90
2021/04/06 08:54:49;;;;;;;2.50;1.53;;;8.10;31.50;;;;;;5073868;28;37948;-93
2021/04/06 08:57:18;;;;;;;4.20;1.90;;;7.70;31.90;;;;;;5066484;28;35890;-92
2021/04/06 08:59:45;;;;;;;7.10;2.30;;;7.70;32.80;;;;;;5055613;28;38304;-91
2021/04/06 09:02:14;;;;;;;5.43;1.80;;;7.60;32.10;;;;;;5055701;28;38077;-92
2021/04/06 09:04:43;;;;;;;4.27;2.20;;;7.50;33.10;;;;;;5060795;28;35827;-92
2021/04/06 09:07:18;;;;;;;7.13;1.83;;;7.40;33.40;;;;;;5079638;28;37238;-90
2021/04/06 09:09:46;;;;;;;5.30;2.30;;;7.30;34.40;;;;;;5066921;28;39657;-90
2021/04/06 09:12:13;;;;;;;7.70;2.00;;;7.10;34.80;;;;;;5081994;28;37873;-90
2021/04/06 09:14:41;;;;;;;9.13;2.53;;;7.00;34.80;;;;;;5092838;28;37924;-92
2021/04/06 09:17:09;;;;;;;6.67;1.83;;;7.40;35.50;;;;;;5096789;28;38307;-92
2021/04/06 09:19:39;;;;;;;6.77;2.10;;;8.10;33.00;;;;;;5064602;28;38975;-92
2021/04/06 09:22:10;;;;;;;4.60;1.63;;;9.10;32.50;;;;;;5086039;28;37982;-90
2021/04/06 09:24:39;;;;;;;5.03;1.90;;;9.80;31.50;;;;;;5091167;28;38323;-90
2021/04/06 09:27:07;;;;;;;3.67;2.00;;;10.50;29.20;;;;;;5078159;28;35871;-93
2021/04/06 09:29:39;;;;;;;2.10;1.70;;;10.70;28.80;;;;;;5071455;28;38928;-91
2021/04/06 09:32:10;;;;;;;5.57;2.20;;;10.80;28.40;;;;;;5066619;28;38039;-92
2021/04/06 09:34:39;;;;;;;8.90;2.13;;;10.50;29.40;;;;;;5050613;28;37695;-87
2021/04/06 09:37:08;;;;;;;6.53;2.00;;;10.10;31.10;;;;;;5071287;28;36486;-88
2021/04/06 09:39:40;;;;;;;6.43;2.00;;;9.20;33.00;;;;;;5059095;28;37880;-92
2021/04/06 09:42:08;;;;;;;7.20;2.63;;;8.00;35.70;;;;;;5080896;28;39320;-89
2021/04/06 09:44:38;;;;;;;8.97;2.53;;;7.40;39.00;;;;;;5091133;28;37925;-90
2021/04/06 09:47:08;;;;;;;7.07;1.93;;;7.40;39.90;;;;;;5070957;28;36438;-93
2021/04/06 09:49:38;;;;;;;9.43;2.03;;;7.80;38.90;;;;;;5067013;28;38322;-93
2021/04/06 09:52:08;;;;;;;3.73;1.53;;;8.90;42.00;;;;;;5066517;28;38229;-91
2021/04/06 09:54:38;;;;;;;4.53;2.00;;;9.90;39.80;;;;;;5066141;28;36766;-92
2021/04/06 09:57:10;;;;;;;5.30;2.53;;;10.30;37.70;;;;;;5080154;28;38004;-93
2021/04/06 09:59:38;;;;;;;7.60;2.40;;;10.10;37.50;;;;;;5062222;28;38465;-92
2021/04/06 10:02:13;;;;;;;7.83;2.20;;;9.80;38.60;;;;;;5064857;28;38209;-92
2021/04/06 10:04:46;;;;;;;4.27;2.20;;;9.50;38.30;;;;;;5080540;28;37950;-90
2021/04/06 10:07:14;;;;;;;5.07;2.83;;;9.60;40.00;;;;;;5076444;28;36924;-89
2021/04/06 10:09:45;;;;;;;5.57;2.43;;;9.50;38.20;;;;;;5078499;28;38763;-93
2021/04/06 10:12:19;;;;;;;5.40;2.57;;;9.30;39.00;;;;;;5073754;28;38361;-91
2021/04/06 10:14:55;;;;;;;6.50;2.10;;;8.90;40.20;;;;;;5093710;28;38475;-93
2021/04/06 10:17:37;;;;;;;10.83;3.40;;;8.60;41.60;;;;;;5079348;28;37263;-93
2021/04/06 10:20:10;;;;;;;5.90;2.33;;;8.50;42.70;;;;;;5061315;28;38442;-92
2021/04/06 10:22:45;;;;;;;3.57;1.87;;;8.30;42.50;;;;;;5080965;28;37273;-90
2021/04/06 10:25:17;;;;;;;4.60;2.00;;;8.60;41.00;;;;;;5064299;28;37288;-90
2021/04/06 10:28:27;;;;;;;4.83;1.90;;;9.90;38.40;;;;;;5056208;28;35934;-90
2021/04/06 10:31:07;;;;;;;5.80;1.73;;;11.50;33.10;;;;;;5054009;28;39961;-90
2021/04/06 10:33:39;;;;;;;3.53;1.77;;;12.60;31.90;;;;;;5089477;28;40104;-93
2021/04/06 10:36:17;;;;;;;4.07;2.57;;;11.90;31.50;;;;;;5071848;28;36526;-91
2021/04/06 10:38:49;;;;;;;4.57;2.03;;;10.60;33.50;;;;;;5071139;28;35907;-91
2021/04/06 10:41:19;;;;;;;3.17;1.97;;;9.70;35.50;;;;;;5072804;28;39261;-90
2021/04/06 10:43:53;;;;;;;3.23;1.80;;;9.00;37.10;;;;;;5079763;28;37342;-91
2021/04/06 10:46:25;;;;;;;4.57;2.40;;;8.40;39.90;;;;;;5081690;28;36893;-92
2021/04/06 10:49:00;;;;;;;9.53;2.77;;;7.70;41.60;;;;;;5091218;28;37420;-92
2021/04/06 10:51:28;;;;;;;3.70;2.70;;;7.20;43.90;;;;;;5087831;28;39284;-94
2021/04/06 10:53:59;;;;;;;7.77;3.33;;;6.70;44.60;;;;;;5068725;28;38632;-95
2021/04/06 10:56:33;;;;;;;8.97;2.83;;;6.40;47.50;;;;;;5054217;28;37146;-92
2021/04/06 10:59:12;;;;;;;7.97;3.27;;;6.20;48.30;;;;;;5064553;28;35875;-93
2021/04/06 11:01:46;;;;;;;4.73;2.90;;;6.30;50.30;;;;;;5055582;28;38324;-94
2021/04/06 11:04:29;;;;;;;5.10;2.23;;;6.60;50.00;;;;;;5068797;28;38190;-93
2021/04/06 11:07:01;;;;;;;5.23;2.57;;;6.90;49.80;;;;;;5084614;28;38308;-92
2021/04/06 11:09:36;;;;;;;7.93;2.40;;;7.40;50.70;;;;;;5063000;28;36338;-92
2021/04/06 11:12:19;;;;;;;5.73;2.13;;;8.20;49.80;;;;;;5082377;28;40896;-93
2021/04/06 11:14:49;;;;;;;4.47;1.80;;;9.00;44.80;;;;;;5084208;28;39107;-95
2021/04/06 11:17:17;;;;;;;5.00;1.43;;;9.30;40.60;;;;;;5078734;28;38078;-94
2021/04/06 11:19:46;;;;;;;5.63;2.10;;;9.50;40.00;;;;;;5058137;28;36045;-93
2021/04/06 11:22:22;;;;;;;3.27;1.57;;;9.80;42.70;;;;;;5053624;28;39523;-94
2021/04/06 11:24:51;;;;;;;3.73;1.60;;;10.30;40.70;;;;;;5062850;28;37051;-90
2021/04/06 11:27:19;;;;;;;3.50;1.97;;;11.00;39.00;;;;;;5054972;28;37407;-90
2021/04/06 11:29:48;;;;;;;4.30;1.63;;;11.70;37.30;;;;;;5068654;28;37438;-91
2021/04/06 11:32:21;;;;;;;2.60;1.07;;;11.90;32.50;;;;;;5066682;28;38919;-90
2021/04/06 11:34:49;;;;;;;3.47;1.77;;;11.60;32.40;;;;;;5065413;28;38098;-89
2021/04/06 11:37:16;;;;;;;2.33;1.23;;;11.40;33.20;;;;;;5078789;28;38775;-88
2021/04/06 11:39:46;;;;;;;7.50;1.90;;;11.40;32.20;;;;;;5084937;28;37063;-90
2021/04/06 11:42:15;;;;;;;5.47;1.43;;;11.50;37.90;;;;;;5064834;28;38750;-88
2021/04/06 11:44:42;;;;;;;4.93;1.90;;;11.10;33.90;;;;;;5093183;28;39957;-89
2021/04/06 11:47:11;;;;;;;3.80;1.73;;;10.50;34.70;;;;;;5076466;28;38281;-87
2021/04/06 11:49:40;;;;;;;5.30;1.90;;;10.00;36.00;;;;;;5088201;28;37192;-88
2021/04/06 11:52:12;;;;;;;4.00;1.40;;;9.70;35.30;;;;;;5071318;28;40687;-89
2021/04/06 11:54:42;;;;;;;1.77;1.20;;;9.30;33.60;;;;;;5077135;28;39302;-90
2021/04/06 11:57:27;;;;;;;4.17;1.90;;;9.00;33.10;;;;;;5070908;28;38820;-88
2021/04/06 11:59:55;;;;;;;3.90;1.70;;;8.70;33.50;;;;;;5064231;28;36537;-91
2021/04/06 12:02:23;;;;;;;3.53;1.80;;;8.40;34.80;;;;;;5062648;28;38566;-90
2021/04/06 12:04:51;;;;;;;3.67;1.50;;;8.50;35.70;;;;;;5081272;28;40554;-90
2021/04/06 12:07:22;;;;;;;2.97;1.27;;;8.50;33.80;;;;;;5064323;28;36820;-88
2021/04/06 12:09:49;;;;;;;6.70;2.00;;;8.50;32.90;;;;;;5052874;28;36236;-89
2021/04/06 12:12:16;;;;;;;3.13;1.40;;;8.40;32.40;;;;;;5054906;28;38307;-90
2021/04/06 12:14:43;;;;;;;4.73;2.20;;;8.30;31.50;;;;;;5063944;28;37641;-89
2021/04/06 12:17:10;;;;;;;7.60;2.00;;;8.50;32.70;;;;;;5063271;28;37546;-89
2021/04/06 12:19:37;;;;;;;6.77;1.63;;;8.50;33.10;;;;;;5080167;28;37357;-86
2021/04/06 12:22:05;;;;;;;4.30;1.50;;;8.40;32.30;;;;;;5074112;28;38467;-87
2021/04/06 12:24:32;;;;;;;2.80;1.60;;;8.40;32.70;;;;;;5061536;28;38283;-87
2021/04/06 12:26:59;;;;;;;5.43;2.20;;;8.60;31.90;;;;;;5044717;28;37110;-85
2021/04/06 12:29:26;;;;;;;2.30;0.97;;;8.70;31.00;;;;;;5051720;28;35747;-85
2021/04/06 12:31:56;;;;;;;4.70;1.43;;;8.90;32.60;;;;;;5057825;28;39407;-87
2021/04/06 12:34:23;;;;;;;3.40;1.30;;;9.30;32.90;;;;;;5072267;28;39046;-85
2021/04/06 12:36:52;;;;;;;2.70;1.37;;;9.20;31.40;;;;;;5056464;28;38541;-88
2021/04/06 12:39:20;;;;;;;3.73;1.60;;;9.10;30.80;;;;;;5047386;28;36961;-86
2021/04/06 12:41:47;;;;;;;3.10;1.40;;;9.00;29.80;;;;;;5071675;28;39717;-86
2021/04/06 12:44:14;;;;;;;3.90;1.97;;;8.90;30.10;;;;;;5071714;28;39507;-88
2021/04/06 12:46:41;;;;;;;4.40;1.57;;;8.80;30.30;;;;;;5069155;28;38011;-87
2021/04/06 12:49:08;;;;;;;5.33;1.50;;;8.60;29.90;;;;;;5072234;28;38071;-85
2021/04/06 12:51:35;;;;;;;4.00;1.83;;;8.50;30.00;;;;;;5046773;28;41360;-88
2021/04/06 12:54:03;;;;;;;4.10;2.03;;;8.30;30.70;;;;;;5057893;28;37705;-89
2021/04/06 12:56:34;;;;;;;5.13;1.40;;;8.00;29.60;;;;;;5064887;28;38705;-87
2021/04/06 12:59:01;;;;;;;2.43;1.50;;;7.70;29.80;;;;;;5076238;28;37414;-88
2021/04/06 13:01:40;;;;;;;4.80;1.70;;;7.20;30.10;;;;;;5065123;28;39533;-87
2021/04/06 13:04:09;;;;;;;6.43;2.00;;;7.00;30.60;;;;;;5068214;28;38772;-87
2021/04/06 13:06:37;;;;;;;6.03;2.60;;;6.90;31.10;;;;;;5079141;28;39074;-87
2021/04/06 13:09:05;;;;;;;9.13;3.93;;;6.90;30.70;;;;;;5060172;28;35992;-87
2021/04/06 13:11:34;;;;;;;6.97;2.63;;;7.00;30.80;;;;;;5060274;28;38574;-87
2021/04/06 13:14:02;;;;;;;6.33;1.90;;;7.00;29.20;;;;;;5100082;28;40352;-88
2021/04/06 13:16:30;;;;;;;3.40;1.83;;;7.10;29.80;;;;;;5064478;28;35118;-89